Time;durP1;ratioP1;P1;durP2;ratioP2;P2;SDS_P1;SDS_P2;PMS_P1;PMS_P2;Temp;Humidity;BMP_temperature;BMP_pressure;BME280_temperature;BME280_humidity;BME280_pressure;Samples;Min_cycle;Max_cycle;Signal;HPM_P1;HPM_P2
2022/08/02 00:01:45;;;;;;;8.52;4.00;;;;;;;;;;5054748;28;20280;-66
2022/08/02 00:04:10;;;;;;;12.82;4.60;;;;;;;;;;5052767;28;20181;-66
2022/08/02 00:06:36;;;;;;;5.70;3.75;;;;;;;;;;5067091;28;20277;-66
2022/08/02 00:09:03;;;;;;;6.13;3.80;;;;;;;;;;5055818;28;20595;-66
2022/08/02 00:11:28;;;;;;;6.75;4.10;;;;;;;;;;5054644;28;20176;-66
2022/08/02 00:13:54;;;;;;;6.85;4.32;;;;;;;;;;5052495;28;20268;-66
2022/08/02 00:16:19;;;;;;;5.85;3.72;;;;;;;;;;5056768;28;20213;-66
2022/08/02 00:18:45;;;;;;;9.93;4.35;;;;;;;;;;5053118;28;20196;-66
2022/08/02 00:21:10;;;;;;;8.80;4.20;;;;;;;;;;5052705;28;20201;-66
2022/08/02 00:23:35;;;;;;;10.80;4.30;;;;;;;;;;5053221;28;20177;-66
2022/08/02 00:26:01;;;;;;;10.48;4.95;;;;;;;;;;5056147;28;20268;-66
2022/08/02 00:28:26;;;;;;;6.22;4.57;;;;;;;;;;5056164;28;20685;-66
2022/08/02 00:30:51;;;;;;;10.90;5.60;;;;;;;;;;5063122;28;20176;-66
2022/08/02 00:33:17;;;;;;;10.25;4.97;;;;;;;;;;5065856;28;20242;-66
2022/08/02 00:35:46;;;;;;;9.98;4.65;;;;;;;;;;5050892;28;20550;-66
2022/08/02 00:38:11;;;;;;;7.93;4.57;;;;;;;;;;5058865;28;20193;-66
2022/08/02 00:40:37;;;;;;;7.07;4.20;;;;;;;;;;5057708;28;20181;-66
2022/08/02 00:43:08;;;;;;;11.02;4.78;;;;;;;;;;5049176;28;20189;-66
2022/08/02 00:45:35;;;;;;;7.38;4.10;;;;;;;;;;5050122;28;20176;-66
2022/08/02 00:48:01;;;;;;;12.18;4.57;;;;;;;;;;5050890;28;20271;-66
2022/08/02 00:50:27;;;;;;;6.43;4.35;;;;;;;;;;5060777;28;20640;-66
2022/08/02 00:52:53;;;;;;;6.90;4.75;;;;;;;;;;5057404;28;20192;-66
2022/08/02 00:55:19;;;;;;;9.25;5.00;;;;;;;;;;5054036;28;20255;-66
2022/08/02 00:57:44;;;;;;;9.50;4.90;;;;;;;;;;5054598;28;20224;-66
2022/08/02 01:00:10;;;;;;;8.10;4.53;;;;;;;;;;5053321;28;20560;-66
2022/08/02 01:02:36;;;;;;;6.75;4.30;;;;;;;;;;5050206;28;20196;-66
2022/08/02 01:05:02;;;;;;;11.85;5.03;;;;;;;;;;5059938;28;20189;-66
2022/08/02 01:07:27;;;;;;;5.53;4.78;;;;;;;;;;5062986;28;20535;-66
2022/08/02 01:09:52;;;;;;;10.48;5.15;;;;;;;;;;5063541;28;20192;-66
2022/08/02 01:12:18;;;;;;;6.15;4.53;;;;;;;;;;5057417;28;20186;-66
2022/08/02 01:14:46;;;;;;;9.50;4.50;;;;;;;;;;5053824;28;20200;-66
2022/08/02 01:17:37;;;;;;;10.43;5.07;;;;;;;;;;5057234;28;20195;-66
2022/08/02 01:20:26;;;;;;;11.05;4.50;;;;;;;;;;5062982;28;20192;-66
2022/08/02 01:23:24;;;;;;;11.43;5.10;;;;;;;;;;5049076;28;20188;-66
2022/08/02 01:26:07;;;;;;;8.65;5.70;;;;;;;;;;5058366;28;20228;-66
2022/08/02 01:28:39;;;;;;;7.68;4.78;;;;;;;;;;5064668;28;20180;-66
2022/08/02 01:31:27;;;;;;;7.18;4.40;;;;;;;;;;5050085;28;20212;-66
2022/08/02 01:34:17;;;;;;;9.52;4.88;;;;;;;;;;5055365;28;20230;-66
2022/08/02 01:36:54;;;;;;;8.40;5.03;;;;;;;;;;5063881;28;20262;-66
2022/08/02 01:39:25;;;;;;;10.38;6.07;;;;;;;;;;5046843;28;20589;-66
2022/08/02 01:41:52;;;;;;;8.50;5.93;;;;;;;;;;5057935;28;20183;-66
2022/08/02 01:44:19;;;;;;;9.43;5.70;;;;;;;;;;5053700;28;20204;-66
2022/08/02 01:46:46;;;;;;;8.65;5.57;;;;;;;;;;5054558;28;20214;-66
2022/08/02 01:49:16;;;;;;;9.93;5.95;;;;;;;;;;5054278;28;20212;-66
2022/08/02 01:54:32;;;;;;;10.55;6.13;;;;;;;;;;5061236;28;20570;-66
2022/08/02 01:57:00;;;;;;;13.00;5.80;;;;;;;;;;5047483;28;20582;-66
2022/08/02 01:59:28;;;;;;;7.45;5.32;;;;;;;;;;5050536;28;20194;-66
2022/08/02 02:01:55;;;;;;;8.32;6.18;;;;;;;;;;5063010;28;20181;-66
2022/08/02 02:04:22;;;;;;;14.95;6.60;;;;;;;;;;5062332;28;20177;-66
2022/08/02 02:06:48;;;;;;;8.23;5.85;;;;;;;;;;5055379;28;20196;-66
2022/08/02 02:09:14;;;;;;;13.02;6.30;;;;;;;;;;5059784;28;20612;-66
2022/08/02 02:11:44;;;;;;;8.60;5.35;;;;;;;;;;5065210;28;20189;-66
2022/08/02 02:14:11;;;;;;;9.77;6.15;;;;;;;;;;5051174;28;20182;-66
2022/08/02 02:16:40;;;;;;;8.02;5.13;;;;;;;;;;5055288;28;20595;-66
2022/08/02 02:19:08;;;;;;;8.55;5.30;;;;;;;;;;5050298;28;20311;-66
2022/08/02 02:21:33;;;;;;;9.63;5.88;;;;;;;;;;5048996;28;20554;-66
2022/08/02 02:23:59;;;;;;;8.38;5.75;;;;;;;;;;5055975;28;20188;-66
2022/08/02 02:26:25;;;;;;;8.27;6.25;;;;;;;;;;5059534;28;20266;-66
2022/08/02 02:28:52;;;;;;;8.50;5.78;;;;;;;;;;5060309;28;20184;-66
2022/08/02 02:31:20;;;;;;;8.43;5.70;;;;;;;;;;5054491;28;20267;-66
2022/08/02 02:33:53;;;;;;;9.82;6.28;;;;;;;;;;5058126;28;20185;-66
2022/08/02 02:36:20;;;;;;;9.60;6.05;;;;;;;;;;5054363;28;20228;-66
2022/08/02 02:38:47;;;;;;;8.02;6.15;;;;;;;;;;5057795;28;20189;-66
2022/08/02 02:41:15;;;;;;;10.02;6.30;;;;;;;;;;5067537;28;20259;-66
2022/08/02 02:43:42;;;;;;;9.48;6.80;;;;;;;;;;5063109;28;20249;-66
2022/08/02 02:46:09;;;;;;;11.05;6.38;;;;;;;;;;5058423;28;20403;-66
2022/08/02 02:48:36;;;;;;;13.38;6.68;;;;;;;;;;5069456;28;20248;-65
2022/08/02 02:51:04;;;;;;;11.82;6.32;;;;;;;;;;5056371;28;20647;-65
2022/08/02 02:53:30;;;;;;;9.73;6.00;;;;;;;;;;5053148;28;20205;-66
2022/08/02 02:55:57;;;;;;;10.48;6.78;;;;;;;;;;5057309;28;20212;-65
2022/08/02 02:58:23;;;;;;;12.40;6.47;;;;;;;;;;5060063;28;20539;-66
2022/08/02 03:03:34;;;;;;;10.18;7.00;;;;;;;;;;5070453;28;20706;-65
2022/08/02 03:05:59;;;;;;;12.07;7.57;;;;;;;;;;5064853;28;20558;-65
2022/08/02 03:08:24;;;;;;;12.68;7.20;;;;;;;;;;5056987;28;20185;-65
2022/08/02 03:10:52;;;;;;;12.05;7.40;;;;;;;;;;5064027;28;20250;-65
2022/08/02 03:13:18;;;;;;;10.50;7.43;;;;;;;;;;5065491;28;20192;-65
2022/08/02 03:15:45;;;;;;;13.43;7.72;;;;;;;;;;5065976;28;20208;-65
2022/08/02 03:18:32;;;;;;;9.73;6.68;;;;;;;;;;5065335;28;20188;-65
2022/08/02 03:21:03;;;;;;;17.38;7.00;;;;;;;;;;5070506;28;20180;-65
2022/08/02 03:23:29;;;;;;;12.90;7.63;;;;;;;;;;5059924;28;20189;-66
2022/08/02 03:25:55;;;;;;;11.73;7.68;;;;;;;;;;5062127;28;21254;-66
2022/08/02 03:28:20;;;;;;;11.57;7.70;;;;;;;;;;5063180;28;20256;-67
2022/08/02 03:30:46;;;;;;;9.88;7.53;;;;;;;;;;5064425;28;20200;-67
2022/08/02 03:33:11;;;;;;;11.07;7.05;;;;;;;;;;5065214;28;20173;-66
2022/08/02 03:35:39;;;;;;;10.77;7.72;;;;;;;;;;5073296;28;20192;-67
2022/08/02 03:38:05;;;;;;;15.35;7.40;;;;;;;;;;5058687;28;20189;-66
2022/08/02 03:40:31;;;;;;;10.23;7.72;;;;;;;;;;5060871;28;20560;-66
2022/08/02 03:42:56;;;;;;;12.98;7.97;;;;;;;;;;5054991;28;20177;-66
2022/08/02 03:45:24;;;;;;;15.43;8.52;;;;;;;;;;5061430;28;20204;-66
2022/08/02 03:47:50;;;;;;;11.88;8.05;;;;;;;;;;5053122;28;20642;-66
2022/08/02 03:50:17;;;;;;;11.63;8.10;;;;;;;;;;5061826;28;20208;-66
2022/08/02 03:52:44;;;;;;;13.23;7.28;;;;;;;;;;5060618;28;20180;-66
2022/08/02 03:55:10;;;;;;;11.90;8.30;;;;;;;;;;5060151;28;20695;-66
2022/08/02 03:57:38;;;;;;;12.43;7.47;;;;;;;;;;5056258;28;20189;-66
2022/08/02 04:00:05;;;;;;;12.07;7.53;;;;;;;;;;5059035;28;20216;-66
2022/08/02 04:02:30;;;;;;;12.27;7.70;;;;;;;;;;5058021;28;20191;-66
2022/08/02 04:04:55;;;;;;;16.75;8.18;;;;;;;;;;5056890;28;20185;-66
2022/08/02 04:07:21;;;;;;;12.95;7.70;;;;;;;;;;5056331;28;20607;-66
2022/08/02 04:09:46;;;;;;;9.27;7.72;;;;;;;;;;5060857;28;20493;-66
2022/08/02 04:12:11;;;;;;;12.45;8.02;;;;;;;;;;5049626;28;20185;-66
2022/08/02 04:14:37;;;;;;;11.07;7.47;;;;;;;;;;5055067;28;20181;-66
2022/08/02 04:17:07;;;;;;;11.38;8.20;;;;;;;;;;5062294;28;20208;-66
2022/08/02 04:19:44;;;;;;;9.30;7.50;;;;;;;;;;5050828;28;20181;-66
2022/08/02 04:22:15;;;;;;;9.65;7.18;;;;;;;;;;5068491;28;20492;-66
2022/08/02 04:24:46;;;;;;;11.23;7.30;;;;;;;;;;5053449;28;20654;-66
2022/08/02 04:27:14;;;;;;;10.88;7.32;;;;;;;;;;5056998;28;20176;-66
2022/08/02 04:29:40;;;;;;;11.30;7.20;;;;;;;;;;5051150;28;20186;-66
2022/08/02 04:32:06;;;;;;;11.40;7.30;;;;;;;;;;5062056;28;21785;-66
2022/08/02 04:34:32;;;;;;;10.43;7.07;;;;;;;;;;5061342;28;20185;-66
2022/08/02 04:36:58;;;;;;;8.60;6.57;;;;;;;;;;5051229;28;20212;-66
2022/08/02 04:39:23;;;;;;;12.50;6.60;;;;;;;;;;5063771;28;20688;-66
2022/08/02 04:41:49;;;;;;;10.38;6.00;;;;;;;;;;5053569;28;20185;-66
2022/08/02 04:44:14;;;;;;;8.77;6.13;;;;;;;;;;5066405;28;20583;-66
2022/08/02 04:46:41;;;;;;;8.43;6.40;;;;;;;;;;5058351;28;20568;-66
2022/08/02 04:49:07;;;;;;;10.07;5.80;;;;;;;;;;5055750;28;20296;-66
2022/08/02 04:51:41;;;;;;;8.25;6.05;;;;;;;;;;5061136;28;20256;-66
2022/08/02 04:54:08;;;;;;;11.68;6.13;;;;;;;;;;5058265;28;20196;-66
2022/08/02 04:56:33;;;;;;;10.88;5.93;;;;;;;;;;5050854;28;20198;-66
2022/08/02 04:58:59;;;;;;;11.02;6.10;;;;;;;;;;5056200;28;20644;-66
2022/08/02 05:01:24;;;;;;;9.90;6.15;;;;;;;;;;5053527;28;20189;-67
2022/08/02 05:03:50;;;;;;;7.30;5.72;;;;;;;;;;5055919;28;20185;-66
2022/08/02 05:06:15;;;;;;;8.52;5.70;;;;;;;;;;5048784;28;20180;-66
2022/08/02 05:08:41;;;;;;;7.68;5.70;;;;;;;;;;5050694;28;20836;-66
2022/08/02 05:11:06;;;;;;;11.77;5.78;;;;;;;;;;5046876;28;20205;-66
2022/08/02 05:13:31;;;;;;;10.35;5.93;;;;;;;;;;5050656;28;20185;-66
2022/08/02 05:16:00;;;;;;;9.02;5.63;;;;;;;;;;5054594;28;20571;-66
2022/08/02 05:18:27;;;;;;;9.80;5.65;;;;;;;;;;5056858;28;20208;-66
2022/08/02 05:20:52;;;;;;;12.60;6.38;;;;;;;;;;5058030;28;20189;-66
2022/08/02 05:23:17;;;;;;;11.10;5.68;;;;;;;;;;5059016;28;20252;-66
2022/08/02 05:25:43;;;;;;;8.75;5.88;;;;;;;;;;5054066;28;20300;-66
2022/08/02 05:28:08;;;;;;;10.50;5.65;;;;;;;;;;5052245;28;20181;-66
2022/08/02 05:30:33;;;;;;;14.27;5.70;;;;;;;;;;5059721;28;20216;-66
2022/08/02 05:32:59;;;;;;;11.25;5.80;;;;;;;;;;5058652;28;20240;-66
2022/08/02 05:35:24;;;;;;;11.75;5.75;;;;;;;;;;5061535;28;20303;-66
2022/08/02 05:37:50;;;;;;;13.55;5.97;;;;;;;;;;5057042;28;20264;-66
2022/08/02 05:40:16;;;;;;;9.90;5.80;;;;;;;;;;5048965;28;20231;-66
2022/08/02 05:42:42;;;;;;;9.90;6.05;;;;;;;;;;5063153;28;20259;-66
2022/08/02 05:45:08;;;;;;;10.02;5.47;;;;;;;;;;5060883;28;20762;-66
2022/08/02 05:47:34;;;;;;;9.85;5.60;;;;;;;;;;5053070;28;20181;-66
2022/08/02 05:50:00;;;;;;;9.23;5.20;;;;;;;;;;5057351;28;20530;-66
2022/08/02 05:52:35;;;;;;;8.13;5.10;;;;;;;;;;5057062;28;20648;-66
2022/08/02 05:55:14;;;;;;;10.25;5.10;;;;;;;;;;5056034;28;20510;-66
2022/08/02 05:58:03;;;;;;;9.05;5.40;;;;;;;;;;5059060;28;20184;-66
2022/08/02 06:00:31;;;;;;;11.93;5.38;;;;;;;;;;5054292;28;20262;-66
2022/08/02 06:03:05;;;;;;;11.23;5.57;;;;;;;;;;5053765;28;20196;-66
2022/08/02 06:05:39;;;;;;;10.10;5.00;;;;;;;;;;5061853;28;20663;-66
2022/08/02 06:08:08;;;;;;;11.70;5.20;;;;;;;;;;5060034;28;20410;-66
2022/08/02 06:10:36;;;;;;;10.15;5.40;;;;;;;;;;5056551;28;20216;-66
2022/08/02 06:13:07;;;;;;;11.40;4.32;;;;;;;;;;5054959;28;20231;-66
2022/08/02 06:15:33;;;;;;;7.93;4.32;;;;;;;;;;5061279;28;20196;-66
2022/08/02 06:18:00;;;;;;;8.40;4.57;;;;;;;;;;5060412;28;20243;-66
2022/08/02 06:20:26;;;;;;;11.35;4.53;;;;;;;;;;5055022;28;20177;-66
2022/08/02 06:22:55;;;;;;;9.25;3.90;;;;;;;;;;5057240;28;20283;-66
2022/08/02 06:25:21;;;;;;;7.38;3.70;;;;;;;;;;5054159;28;20488;-64
2022/08/02 06:27:48;;;;;;;8.40;3.45;;;;;;;;;;5055712;28;20733;-64
2022/08/02 06:30:14;;;;;;;8.02;4.05;;;;;;;;;;5046313;28;20197;-65
2022/08/02 06:32:40;;;;;;;7.90;3.72;;;;;;;;;;5046361;28;20208;-65
2022/08/02 06:35:18;;;;;;;5.95;3.10;;;;;;;;;;4775455;28;10000672;-65
2022/08/02 06:37:49;;;;;;;5.45;3.30;;;;;;;;;;5051324;28;20444;-65
2022/08/02 06:40:27;;;;;;;6.90;3.15;;;;;;;;;;5056793;28;20203;-64
2022/08/02 06:43:11;;;;;;;4.25;2.80;;;;;;;;;;5043772;28;20216;-64
2022/08/02 06:45:37;;;;;;;9.85;3.13;;;;;;;;;;5051782;28;20176;-65
2022/08/02 06:48:03;;;;;;;6.82;2.50;;;;;;;;;;5053643;28;20185;-65
2022/08/02 06:50:29;;;;;;;7.15;2.92;;;;;;;;;;5052705;28;20180;-65
2022/08/02 06:52:54;;;;;;;4.22;2.80;;;;;;;;;;5051137;28;20238;-65
2022/08/02 06:55:19;;;;;;;7.15;2.75;;;;;;;;;;5050337;28;20569;-65
2022/08/02 06:57:45;;;;;;;7.75;2.80;;;;;;;;;;5053738;28;20199;-65
2022/08/02 07:00:11;;;;;;;4.18;2.47;;;;;;;;;;5053139;28;20288;-65
2022/08/02 07:02:38;;;;;;;5.30;3.22;;;;;;;;;;5050557;28;20193;-65
2022/08/02 07:05:04;;;;;;;8.68;2.88;;;;;;;;;;5056230;28;20186;-65
2022/08/02 07:07:30;;;;;;;5.70;2.83;;;;;;;;;;5062440;28;20334;-65
2022/08/02 07:09:57;;;;;;;5.07;2.72;;;;;;;;;;5045516;28;20494;-65
2022/08/02 07:12:22;;;;;;;10.88;3.08;;;;;;;;;;5052833;28;20203;-65
2022/08/02 07:14:47;;;;;;;9.13;3.25;;;;;;;;;;5051715;28;20193;-64
2022/08/02 07:17:13;;;;;;;7.13;2.95;;;;;;;;;;5052687;28;20388;-64
2022/08/02 07:19:38;;;;;;;8.43;3.60;;;;;;;;;;5059172;28;20180;-64
2022/08/02 07:22:04;;;;;;;9.63;3.42;;;;;;;;;;5058691;28;20185;-64
2022/08/02 07:24:29;;;;;;;11.00;4.18;;;;;;;;;;5061439;28;20199;-64
2022/08/02 07:26:56;;;;;;;8.80;3.80;;;;;;;;;;5053398;28;20724;-64
2022/08/02 07:29:21;;;;;;;12.10;4.28;;;;;;;;;;5063109;28;20196;-64
2022/08/02 07:31:46;;;;;;;6.90;4.30;;;;;;;;;;5061024;28;20580;-65
2022/08/02 07:34:12;;;;;;;8.35;4.40;;;;;;;;;;5060751;28;20201;-64
2022/08/02 07:36:37;;;;;;;8.75;4.10;;;;;;;;;;5061922;28;20209;-65
2022/08/02 07:39:03;;;;;;;9.02;4.28;;;;;;;;;;5057797;28;20280;-64
2022/08/02 07:41:29;;;;;;;14.30;4.40;;;;;;;;;;5062402;28;21216;-64
2022/08/02 07:43:54;;;;;;;10.75;4.57;;;;;;;;;;5048726;28;20653;-64
2022/08/02 07:46:19;;;;;;;9.45;4.90;;;;;;;;;;5056987;28;20189;-64
2022/08/02 07:48:46;;;;;;;9.95;4.32;;;;;;;;;;5048355;28;20412;-64
2022/08/02 07:51:11;;;;;;;6.82;4.10;;;;;;;;;;5050811;28;20181;-64
2022/08/02 07:53:37;;;;;;;9.63;4.47;;;;;;;;;;5052696;28;20182;-64
2022/08/02 07:56:02;;;;;;;9.52;4.22;;;;;;;;;;5059047;28;20201;-64
2022/08/02 07:58:28;;;;;;;9.35;4.20;;;;;;;;;;5063085;28;20181;-64
2022/08/02 08:00:53;;;;;;;11.50;4.18;;;;;;;;;;5051532;28;20789;-64
2022/08/02 08:03:18;;;;;;;11.32;4.55;;;;;;;;;;5052023;28;20235;-64
2022/08/02 08:05:44;;;;;;;7.78;3.72;;;;;;;;;;5060000;28;20233;-65
2022/08/02 08:08:09;;;;;;;8.50;3.70;;;;;;;;;;5056651;28;20173;-65
2022/08/02 08:10:35;;;;;;;10.70;4.05;;;;;;;;;;5050501;28;20189;-65
2022/08/02 08:13:00;;;;;;;8.55;4.00;;;;;;;;;;5058977;28;20625;-64
2022/08/02 08:15:25;;;;;;;9.07;3.92;;;;;;;;;;5049107;28;20754;-64
2022/08/02 08:17:51;;;;;;;12.80;4.03;;;;;;;;;;5052789;28;20203;-64
2022/08/02 08:20:16;;;;;;;6.28;3.30;;;;;;;;;;5063927;28;20334;-64
2022/08/02 08:22:42;;;;;;;7.63;3.47;;;;;;;;;;5060391;28;20258;-64
2022/08/02 08:25:07;;;;;;;6.07;3.13;;;;;;;;;;5059232;28;20263;-64
2022/08/02 08:27:33;;;;;;;9.60;3.10;;;;;;;;;;5056951;28;20230;-63
2022/08/02 08:29:59;;;;;;;8.02;3.45;;;;;;;;;;5058837;28;20532;-64
2022/08/02 08:32:25;;;;;;;8.63;3.58;;;;;;;;;;5059326;28;20195;-64
2022/08/02 08:34:51;;;;;;;8.00;3.03;;;;;;;;;;5053693;28;20185;-65
2022/08/02 08:37:17;;;;;;;6.35;2.42;;;;;;;;;;5054288;28;20981;-63
2022/08/02 08:39:42;;;;;;;8.57;2.70;;;;;;;;;;5053431;28;20443;-64
2022/08/02 08:42:08;;;;;;;7.75;2.40;;;;;;;;;;5059624;28;20195;-64
2022/08/02 08:44:34;;;;;;;5.15;2.50;;;;;;;;;;5059034;28;20189;-64
2022/08/02 08:47:01;;;;;;;5.70;2.85;;;;;;;;;;5055456;28;20649;-64
2022/08/02 08:49:35;;;;;;;7.03;3.08;;;;;;;;;;5058024;28;20196;-65
2022/08/02 08:52:04;;;;;;;7.85;3.17;;;;;;;;;;5055717;28;20204;-64
2022/08/02 08:54:30;;;;;;;4.53;2.83;;;;;;;;;;5049769;28;20742;-63
2022/08/02 08:56:56;;;;;;;9.02;3.22;;;;;;;;;;5048346;28;20212;-64
2022/08/02 08:59:21;;;;;;;5.07;3.38;;;;;;;;;;5050938;28;20477;-63
2022/08/02 09:01:49;;;;;;;6.13;3.38;;;;;;;;;;5051863;28;20666;-63
2022/08/02 09:04:14;;;;;;;6.57;3.00;;;;;;;;;;5052374;28;20279;-63
2022/08/02 09:06:40;;;;;;;6.00;2.95;;;;;;;;;;5051313;28;20261;-63
2022/08/02 09:09:05;;;;;;;5.20;2.90;;;;;;;;;;5047643;28;20213;-63
2022/08/02 09:11:30;;;;;;;7.43;3.40;;;;;;;;;;5058596;28;20180;-63
2022/08/02 09:14:01;;;;;;;8.10;3.20;;;;;;;;;;5059556;28;20238;-64
2022/08/02 09:16:39;;;;;;;5.07;3.35;;;;;;;;;;5053068;28;20193;-63
2022/08/02 09:19:19;;;;;;;6.60;3.40;;;;;;;;;;5053807;28;20184;-63
2022/08/02 09:21:48;;;;;;;7.07;3.42;;;;;;;;;;5053720;28;20180;-63
2022/08/02 09:24:16;;;;;;;8.02;3.40;;;;;;;;;;5048426;28;20927;-64
2022/08/02 09:26:42;;;;;;;6.22;3.30;;;;;;;;;;5049551;28;20789;-63
2022/08/02 09:29:07;;;;;;;5.00;3.50;;;;;;;;;;5046924;28;20209;-63
2022/08/02 09:31:33;;;;;;;7.60;4.18;;;;;;;;;;5048286;28;20244;-65
2022/08/02 09:33:59;;;;;;;8.02;3.97;;;;;;;;;;5054204;28;20537;-71
2022/08/02 09:36:26;;;;;;;6.28;3.17;;;;;;;;;;5049697;28;20239;-64
2022/08/02 09:38:57;;;;;;;4.25;2.90;;;;;;;;;;5049266;28;20181;-63
2022/08/02 09:41:25;;;;;;;7.22;3.88;;;;;;;;;;5052969;28;20520;-64
2022/08/02 09:43:51;;;;;;;6.72;3.72;;;;;;;;;;5050492;28;20184;-64
2022/08/02 09:46:19;;;;;;;4.90;3.08;;;;;;;;;;5049921;28;21097;-64
2022/08/02 09:48:53;;;;;;;7.45;3.50;;;;;;;;;;5050797;28;20259;-64
2022/08/02 09:51:34;;;;;;;5.20;3.10;;;;;;;;;;5052241;28;20268;-65
2022/08/02 09:54:01;;;;;;;5.53;3.38;;;;;;;;;;5050588;28;20185;-63
2022/08/02 09:56:27;;;;;;;6.63;3.97;;;;;;;;;;5052130;28;20706;-64
2022/08/02 09:58:55;;;;;;;3.85;3.30;;;;;;;;;;5047873;28;20707;-64
2022/08/02 10:01:31;;;;;;;5.07;3.05;;;;;;;;;;5054772;28;20182;-64
2022/08/02 10:03:58;;;;;;;4.72;3.50;;;;;;;;;;5056848;28;20188;-64
2022/08/02 10:06:24;;;;;;;5.25;3.72;;;;;;;;;;5050428;28;20181;-65
2022/08/02 10:08:52;;;;;;;5.50;3.30;;;;;;;;;;5058771;28;20192;-64
2022/08/02 10:11:18;;;;;;;5.50;3.33;;;;;;;;;;5048347;28;20270;-64
2022/08/02 10:13:44;;;;;;;7.53;3.50;;;;;;;;;;5057102;28;20185;-65
2022/08/02 10:16:10;;;;;;;7.13;3.65;;;;;;;;;;5050427;28;20199;-64
2022/08/02 10:18:35;;;;;;;8.00;3.30;;;;;;;;;;5053993;28;20698;-64
2022/08/02 10:21:01;;;;;;;6.28;3.88;;;;;;;;;;5046476;28;20177;-67
2022/08/02 10:23:31;;;;;;;6.82;3.75;;;;;;;;;;5059800;28;20262;-69
2022/08/02 10:25:59;;;;;;;4.03;3.20;;;;;;;;;;5049538;28;20221;-68
2022/08/02 10:28:31;;;;;;;4.88;3.58;;;;;;;;;;5052243;28;20287;-65
2022/08/02 10:30:59;;;;;;;8.45;3.10;;;;;;;;;;5047572;28;20177;-64
2022/08/02 10:33:26;;;;;;;4.88;3.30;;;;;;;;;;5049175;28;20189;-64
2022/08/02 10:35:56;;;;;;;4.93;2.60;;;;;;;;;;5048944;28;20213;-64
2022/08/02 10:38:22;;;;;;;5.57;3.28;;;;;;;;;;5049149;28;20181;-71
2022/08/02 10:40:50;;;;;;;6.25;2.67;;;;;;;;;;5046849;28;20722;-64
2022/08/02 10:43:30;;;;;;;5.35;2.95;;;;;;;;;;5051111;28;20203;-64
2022/08/02 10:46:37;;;;;;;4.63;2.67;;;;;;;;;;5049513;28;20224;-65
2022/08/02 10:49:06;;;;;;;6.03;3.10;;;;;;;;;;5050677;28;20711;-64
2022/08/02 10:52:00;;;;;;;3.97;2.92;;;;;;;;;;5056017;28;20186;-65
2022/08/02 10:54:40;;;;;;;5.15;2.60;;;;;;;;;;5053059;28;20177;-67
2022/08/02 10:57:30;;;;;;;4.43;1.88;;;;;;;;;;5051358;28;20336;-65
2022/08/02 11:00:20;;;;;;;4.40;2.00;;;;;;;;;;5047922;28;20181;-65
2022/08/02 11:02:46;;;;;;;4.97;2.30;;;;;;;;;;5051810;28;20526;-66
2022/08/02 11:05:25;;;;;;;4.50;2.13;;;;;;;;;;5050250;28;20221;-69
2022/08/02 11:07:51;;;;;;;4.72;2.45;;;;;;;;;;5055052;28;20196;-66
2022/08/02 11:10:27;;;;;;;4.53;2.20;;;;;;;;;;5049961;28;20193;-65
2022/08/02 11:13:03;;;;;;;2.33;2.05;;;;;;;;;;5051014;28;20186;-65
2022/08/02 11:15:29;;;;;;;3.35;2.15;;;;;;;;;;5051146;28;20211;-67
2022/08/02 11:17:57;;;;;;;2.58;1.92;;;;;;;;;;5055661;28;20189;-64
2022/08/02 11:20:24;;;;;;;3.72;2.33;;;;;;;;;;5051977;28;20174;-66
2022/08/02 11:22:52;;;;;;;9.82;2.92;;;;;;;;;;5050362;28;20192;-71
2022/08/02 11:25:23;;;;;;;6.07;2.30;;;;;;;;;;5055667;28;20237;-66
2022/08/02 11:27:52;;;;;;;4.85;2.97;;;;;;;;;;5052623;28;20264;-65
2022/08/02 11:30:19;;;;;;;3.22;2.30;;;;;;;;;;5051726;28;20622;-65
2022/08/02 11:32:45;;;;;;;5.65;2.65;;;;;;;;;;5050336;28;20239;-65
2022/08/02 11:35:10;;;;;;;3.40;2.65;;;;;;;;;;5055384;28;20189;-66
2022/08/02 11:37:43;;;;;;;3.50;2.58;;;;;;;;;;5049748;28;20715;-66
2022/08/02 11:40:15;;;;;;;3.75;2.58;;;;;;;;;;5051003;28;20181;-66
2022/08/02 11:42:44;;;;;;;9.30;3.33;;;;;;;;;;5048742;28;20204;-68
2022/08/02 11:45:14;;;;;;;6.95;2.60;;;;;;;;;;5053938;28;20188;-65
2022/08/02 11:47:50;;;;;;;5.05;2.67;;;;;;;;;;5052525;28;20641;-71
2022/08/02 11:50:17;;;;;;;5.90;2.78;;;;;;;;;;5054356;28;20188;-65
2022/08/02 11:52:43;;;;;;;2.53;1.98;;;;;;;;;;5054594;28;20243;-64
2022/08/02 11:55:10;;;;;;;4.40;2.08;;;;;;;;;;5048989;28;20181;-68
2022/08/02 11:57:36;;;;;;;3.13;2.10;;;;;;;;;;5051207;28;20192;-64
2022/08/02 12:00:12;;;;;;;3.85;2.05;;;;;;;;;;5053647;28;20181;-66
2022/08/02 12:02:37;;;;;;;2.83;2.00;;;;;;;;;;5051763;28;20196;-65
2022/08/02 12:05:06;;;;;;;3.08;2.35;;;;;;;;;;5052522;28;20589;-65
2022/08/02 12:07:35;;;;;;;3.90;2.40;;;;;;;;;;5057337;28;20184;-65
2022/08/02 12:10:11;;;;;;;2.88;2.30;;;;;;;;;;5055937;28;20306;-65
2022/08/02 12:12:55;;;;;;;3.92;2.03;;;;;;;;;;5050965;28;20187;-65
2022/08/02 12:15:41;;;;;;;2.10;1.95;;;;;;;;;;5051695;28;20280;-64
2022/08/02 12:21:19;;;;;;;3.33;1.52;;;;;;;;;;5052630;28;20191;-65
2022/08/02 12:23:44;;;;;;;1.65;1.20;;;;;;;;;;5057313;28;20180;-64
2022/08/02 12:26:10;;;;;;;2.45;1.23;;;;;;;;;;5056311;28;20286;-64
2022/08/02 12:28:37;;;;;;;2.92;1.35;;;;;;;;;;5056244;28;20178;-65
2022/08/02 12:31:04;;;;;;;2.53;1.30;;;;;;;;;;5051903;28;20205;-65
2022/08/02 12:33:45;;;;;;;3.90;1.50;;;;;;;;;;5052333;28;20181;-65
2022/08/02 12:36:15;;;;;;;2.65;1.75;;;;;;;;;;5050115;28;20223;-65
2022/08/02 12:38:50;;;;;;;2.67;1.48;;;;;;;;;;5049484;28;20543;-64
2022/08/02 12:41:15;;;;;;;2.10;1.30;;;;;;;;;;5051403;28;20173;-70
2022/08/02 12:43:42;;;;;;;1.98;1.23;;;;;;;;;;5051735;28;20753;-65
2022/08/02 12:46:18;;;;;;;1.30;1.20;;;;;;;;;;5053514;28;20252;-64
2022/08/02 12:48:43;;;;;;;2.33;1.27;;;;;;;;;;5051732;28;20279;-67
2022/08/02 12:51:46;;;;;;;2.05;1.30;;;;;;;;;;5047709;28;20239;-65
2022/08/02 12:54:13;;;;;;;3.30;1.50;;;;;;;;;;5047157;28;20212;-66
2022/08/02 12:56:39;;;;;;;5.05;1.42;;;;;;;;;;5055661;28;20235;-65
2022/08/02 12:59:05;;;;;;;2.20;1.50;;;;;;;;;;4350004;28;10000884;-64
2022/08/02 13:01:30;;;;;;;2.30;1.52;;;;;;;;;;5060412;28;20663;-65
2022/08/02 13:03:56;;;;;;;2.83;1.35;;;;;;;;;;5060900;28;20683;-64
2022/08/02 13:06:23;;;;;;;2.95;1.30;;;;;;;;;;5060889;28;20650;-64
2022/08/02 13:08:49;;;;;;;2.15;1.77;;;;;;;;;;5058740;28;20682;-64
2022/08/02 13:11:15;;;;;;;2.40;1.55;;;;;;;;;;5056502;28;20177;-65
2022/08/02 13:13:40;;;;;;;1.98;1.55;;;;;;;;;;5059718;28;20185;-66
2022/08/02 13:16:08;;;;;;;3.13;1.58;;;;;;;;;;5055332;28;20200;-66
2022/08/02 13:18:34;;;;;;;1.65;1.45;;;;;;;;;;5063646;28;20250;-64
2022/08/02 13:20:59;;;;;;;1.80;1.70;;;;;;;;;;5056248;28;20600;-65
2022/08/02 13:23:24;;;;;;;2.78;1.65;;;;;;;;;;5045118;28;20189;-66
2022/08/02 13:25:52;;;;;;;3.25;1.70;;;;;;;;;;5050379;28;20225;-65
2022/08/02 13:28:17;;;;;;;2.72;1.60;;;;;;;;;;5061701;28;20173;-66
2022/08/02 13:30:42;;;;;;;4.35;1.88;;;;;;;;;;5053496;28;20189;-65
2022/08/02 13:33:08;;;;;;;1.35;1.25;;;;;;;;;;5061855;28;20180;-65
2022/08/02 13:35:33;;;;;;;4.50;1.67;;;;;;;;;;5058009;28;20681;-66
2022/08/02 13:37:59;;;;;;;1.95;1.58;;;;;;;;;;5052699;28;20441;-66
2022/08/02 13:40:24;;;;;;;1.77;1.50;;;;;;;;;;5047786;28;20177;-65
2022/08/02 13:42:49;;;;;;;1.70;1.58;;;;;;;;;;5044244;28;20185;-65
2022/08/02 13:45:15;;;;;;;2.70;1.50;;;;;;;;;;5044580;28;20181;-67
2022/08/02 13:47:42;;;;;;;2.42;1.50;;;;;;;;;;5044125;28;20265;-65
2022/08/02 13:50:08;;;;;;;2.85;1.42;;;;;;;;;;5046686;28;20193;-66
2022/08/02 13:52:33;;;;;;;3.63;1.42;;;;;;;;;;5046979;28;20204;-65
2022/08/02 13:54:59;;;;;;;1.52;1.20;;;;;;;;;;5051223;28;20185;-65
2022/08/02 13:57:24;;;;;;;2.53;1.70;;;;;;;;;;5043383;28;20302;-65
2022/08/02 13:59:50;;;;;;;1.30;1.20;;;;;;;;;;5045194;28;20926;-65
2022/08/02 14:02:15;;;;;;;1.90;1.58;;;;;;;;;;5046853;28;20188;-65
2022/08/02 14:04:40;;;;;;;2.53;1.50;;;;;;;;;;5050322;28;20176;-65
2022/08/02 14:07:06;;;;;;;7.28;1.75;;;;;;;;;;5048197;28;20177;-65
2022/08/02 14:09:31;;;;;;;1.40;1.30;;;;;;;;;;5043290;28;20618;-65
2022/08/02 14:11:58;;;;;;;2.83;1.40;;;;;;;;;;5044208;28;20193;-66
2022/08/02 14:14:24;;;;;;;2.55;1.80;;;;;;;;;;5045480;28;20181;-65
2022/08/02 14:16:49;;;;;;;2.03;1.83;;;;;;;;;;5046425;28;20213;-66
2022/08/02 14:19:15;;;;;;;2.35;1.52;;;;;;;;;;5050789;28;21392;-65
2022/08/02 14:21:41;;;;;;;2.38;1.80;;;;;;;;;;4004497;28;10000404;-65
2022/08/02 14:24:06;;;;;;;4.72;1.65;;;;;;;;;;5053934;28;20192;-65
2022/08/02 14:26:31;;;;;;;2.22;1.60;;;;;;;;;;5059281;28;20605;-65
2022/08/02 14:28:57;;;;;;;1.88;1.40;;;;;;;;;;5058952;28;20188;-66
2022/08/02 14:31:22;;;;;;;1.83;1.70;;;;;;;;;;5058473;28;20208;-63
2022/08/02 14:33:48;;;;;;;2.70;1.50;;;;;;;;;;5059005;28;20185;-63
2022/08/02 14:36:13;;;;;;;2.45;1.63;;;;;;;;;;5057769;28;20192;-65
2022/08/02 14:38:38;;;;;;;1.30;1.20;;;;;;;;;;5055315;28;20656;-65
2022/08/02 14:41:04;;;;;;;3.75;1.90;;;;;;;;;;5059734;28;20524;-64
2022/08/02 14:46:14;;;;;;;1.80;1.70;;;;;;;;;;5056773;28;20315;-64
2022/08/02 14:48:39;;;;;;;3.38;1.50;;;;;;;;;;5059063;28;20692;-64
2022/08/02 14:51:04;;;;;;;2.08;1.70;;;;;;;;;;5058018;28;20191;-64
2022/08/02 14:53:30;;;;;;;2.53;1.30;;;;;;;;;;5053816;28;20234;-64
2022/08/02 14:55:55;;;;;;;3.72;1.30;;;;;;;;;;5058110;28;20780;-64